createdAt,value
2022-11-27T00:00:42.041Z,7.50
2022-11-27T00:03:10.888Z,6.75
2022-11-27T00:05:45.615Z,6.18
2022-11-27T00:08:14.300Z,7.18
2022-11-27T00:10:44.880Z,7.80
2022-11-27T00:13:13.549Z,6.95
2022-11-27T00:15:44.252Z,6.95
2022-11-27T00:18:13.525Z,6.85
2022-11-27T00:20:48.155Z,7.20
2022-11-27T00:23:16.783Z,7.45
2022-11-27T00:25:54.365Z,6.70
2022-11-27T00:28:23.124Z,6.80
2022-11-27T00:30:51.859Z,6.68
2022-11-27T00:33:20.659Z,6.20
2022-11-27T00:35:49.355Z,7.30
2022-11-27T00:38:19.724Z,6.40
2022-11-27T00:40:49.059Z,6.20
2022-11-27T00:43:19.887Z,6.60
2022-11-27T00:45:51.115Z,6.50
2022-11-27T00:48:19.745Z,6.28
2022-11-27T00:50:48.427Z,6.07
2022-11-27T00:53:17.114Z,6.13
2022-11-27T00:55:47.962Z,6.32
2022-11-27T00:58:16.665Z,6.40
2022-11-27T01:00:47.744Z,5.57
2022-11-27T01:03:16.646Z,5.77
2022-11-27T01:05:45.413Z,6.13
2022-11-27T01:08:14.092Z,6.07
2022-11-27T01:10:54.451Z,5.60
2022-11-27T01:13:28.763Z,5.30
2022-11-27T01:16:04.574Z,5.80
2022-11-27T01:18:34.921Z,6.22
2022-11-27T01:21:05.223Z,6.68
2022-11-27T01:23:34.403Z,5.20
2022-11-27T01:26:03.865Z,5.85
2022-11-27T01:28:32.867Z,5.10
2022-11-27T01:31:07.167Z,5.50
2022-11-27T01:33:36.171Z,5.20
2022-11-27T01:36:07.950Z,5.32
2022-11-27T01:38:37.638Z,5.80
2022-11-27T01:41:10.481Z,4.78
2022-11-27T01:43:43.382Z,5.38
2022-11-27T01:46:32.739Z,5.53
2022-11-27T01:49:26.431Z,5.80
2022-11-27T01:52:00.995Z,5.50
2022-11-27T01:54:34.679Z,4.97
2022-11-27T01:57:09.382Z,5.43
2022-11-27T01:59:37.994Z,4.57
2022-11-27T02:02:08.620Z,5.72
2022-11-27T02:04:37.507Z,4.82
2022-11-27T02:07:06.534Z,5.10
2022-11-27T02:09:35.877Z,5.13
2022-11-27T02:12:26.564Z,5.25
2022-11-27T02:15:04.617Z,4.97
2022-11-27T02:17:42.619Z,5.47
2022-11-27T02:20:39.169Z,5.40
2022-11-27T02:23:47.182Z,5.45
2022-11-27T02:26:39.705Z,5.38
2022-11-27T02:29:12.591Z,5.15
2022-11-27T02:31:48.513Z,5.15
2022-11-27T02:34:29.490Z,4.70
2022-11-27T02:37:11.197Z,4.88
2022-11-27T02:39:48.699Z,5.03
2022-11-27T02:42:21.934Z,5.63
2022-11-27T02:45:00.083Z,4.78
2022-11-27T02:47:32.002Z,5.45
2022-11-27T02:52:33.080Z,4.82
2022-11-27T02:55:06.808Z,5.13
2022-11-27T02:57:38.486Z,4.97
2022-11-27T03:00:12.102Z,5.00
2022-11-27T03:02:46.112Z,5.20
2022-11-27T03:05:20.374Z,5.28
2022-11-27T03:07:54.615Z,4.57
2022-11-27T03:10:30.695Z,5.28
2022-11-27T03:13:00.456Z,5.05
2022-11-27T03:15:41.099Z,5.13
2022-11-27T03:18:19.492Z,4.75
2022-11-27T03:20:57.941Z,4.90
2022-11-27T03:23:26.564Z,4.43
2022-11-27T03:25:55.509Z,4.45
2022-11-27T03:28:24.709Z,4.55
2022-11-27T03:30:57.172Z,4.10
2022-11-27T03:33:26.051Z,4.15
2022-11-27T03:35:54.784Z,4.28
2022-11-27T03:38:23.530Z,3.85
2022-11-27T03:40:59.839Z,4.57
2022-11-27T03:43:35.781Z,4.15
2022-11-27T03:46:12.498Z,4.10
2022-11-27T03:48:51.693Z,4.20
2022-11-27T03:51:27.411Z,4.15
2022-11-27T03:54:06.166Z,4.38
2022-11-27T03:56:42.304Z,4.13
2022-11-27T03:59:16.045Z,3.78
2022-11-27T04:01:47.088Z,4.07
2022-11-27T04:04:16.557Z,3.93
2022-11-27T04:06:45.235Z,4.28
2022-11-27T04:09:13.895Z,4.10
2022-11-27T04:11:42.525Z,3.90
2022-11-27T04:14:11.375Z,3.95
2022-11-27T04:16:40.008Z,3.88
2022-11-27T04:19:10.691Z,4.20
2022-11-27T04:21:39.337Z,4.00
2022-11-27T04:24:08.583Z,4.55
2022-11-27T04:26:37.216Z,3.83
2022-11-27T04:29:05.938Z,4.30
2022-11-27T04:31:34.639Z,3.97
2022-11-27T04:34:03.379Z,3.97
2022-11-27T04:36:39.017Z,4.78
2022-11-27T04:39:08.146Z,4.00
2022-11-27T04:41:36.812Z,4.13
2022-11-27T04:44:06.289Z,4.40
2022-11-27T04:46:35.119Z,4.40
2022-11-27T04:49:03.972Z,5.05
2022-11-27T04:51:35.229Z,4.18
2022-11-27T04:54:04.019Z,4.22
2022-11-27T04:56:32.812Z,4.57
2022-11-27T04:59:01.442Z,4.53
2022-11-27T05:01:30.178Z,4.78
2022-11-27T05:03:58.827Z,4.30
2022-11-27T05:06:27.566Z,4.68
2022-11-27T05:09:01.329Z,5.05
2022-11-27T05:11:31.462Z,5.03
2022-11-27T05:14:13.267Z,5.10
2022-11-27T05:16:42.034Z,4.70
2022-11-27T05:19:11.272Z,5.07
2022-11-27T05:21:40.332Z,4.72
2022-11-27T05:24:12.145Z,5.85
2022-11-27T05:26:42.271Z,5.22
2022-11-27T05:29:12.859Z,5.68
2022-11-27T05:31:41.951Z,5.25
2022-11-27T05:34:11.362Z,5.88
2022-11-27T05:36:40.999Z,5.22
2022-11-27T05:39:12.951Z,5.78
2022-11-27T05:44:14.600Z,5.22
2022-11-27T05:46:45.021Z,5.00
2022-11-27T05:49:16.965Z,4.75
2022-11-27T05:54:22.028Z,5.38
2022-11-27T05:56:50.716Z,4.45
2022-11-27T05:59:19.559Z,4.47
2022-11-27T06:01:48.699Z,4.63
2022-11-27T06:04:17.332Z,4.28
2022-11-27T06:06:45.984Z,4.10
2022-11-27T06:09:14.740Z,3.67
2022-11-27T06:11:45.322Z,4.30
2022-11-27T06:14:14.006Z,4.15
2022-11-27T06:16:42.765Z,3.95
2022-11-27T06:19:11.504Z,4.00
2022-11-27T06:21:40.538Z,3.95
2022-11-27T06:24:09.434Z,4.45
2022-11-27T06:26:38.093Z,4.55
2022-11-27T06:29:08.753Z,4.47
2022-11-27T06:31:37.598Z,4.50
2022-11-27T06:34:07.505Z,4.07
2022-11-27T06:36:40.111Z,4.15
2022-11-27T06:39:12.209Z,3.88
2022-11-27T06:41:40.902Z,4.10
2022-11-27T06:44:12.199Z,4.53
2022-11-27T06:46:40.847Z,4.50
2022-11-27T06:49:09.498Z,4.07
2022-11-27T06:51:38.195Z,4.75
2022-11-27T06:54:07.120Z,4.88
2022-11-27T06:56:35.751Z,4.28
2022-11-27T06:59:04.399Z,4.18
2022-11-27T07:01:35.556Z,4.43
2022-11-27T07:04:04.199Z,4.40
2022-11-27T07:06:32.804Z,4.05
2022-11-27T07:09:01.476Z,3.88
2022-11-27T07:11:32.147Z,4.15
2022-11-27T07:14:03.347Z,4.68
2022-11-27T07:16:37.360Z,4.10
2022-11-27T07:19:08.558Z,4.45
2022-11-27T07:21:39.408Z,4.88
2022-11-27T07:24:09.526Z,4.85
2022-11-27T07:26:38.171Z,5.05
2022-11-27T07:29:06.778Z,4.35
2022-11-27T07:31:37.493Z,4.45
2022-11-27T07:34:11.702Z,4.82
2022-11-27T07:36:42.838Z,4.88
2022-11-27T07:39:11.551Z,4.55
2022-11-27T07:41:40.160Z,4.80
2022-11-27T07:44:08.851Z,4.75
2022-11-27T07:46:39.444Z,4.88
2022-11-27T07:49:07.999Z,5.45
2022-11-27T07:51:36.571Z,4.32
2022-11-27T07:54:05.706Z,4.78
2022-11-27T07:56:34.560Z,5.15
2022-11-27T07:59:03.156Z,5.10
2022-11-27T08:01:31.860Z,5.00
2022-11-27T08:04:02.556Z,5.22
2022-11-27T08:06:31.342Z,5.60
2022-11-27T08:08:59.943Z,6.00
2022-11-27T08:11:32.281Z,4.93
2022-11-27T08:14:03.114Z,4.72
2022-11-27T08:16:33.592Z,4.75
2022-11-27T08:19:04.643Z,5.38
2022-11-27T08:21:34.253Z,5.33
2022-11-27T08:24:02.934Z,5.00
2022-11-27T08:26:31.596Z,5.03
2022-11-27T08:29:00.247Z,5.30
2022-11-27T08:31:29.247Z,5.13
2022-11-27T08:33:58.464Z,5.13
2022-11-27T08:36:29.417Z,5.38
2022-11-27T08:38:58.589Z,5.05
2022-11-27T08:41:27.225Z,5.38
2022-11-27T08:43:55.884Z,5.35
2022-11-27T08:46:26.416Z,5.55
2022-11-27T08:48:55.012Z,6.05
2022-11-27T08:51:23.571Z,6.65
2022-11-27T08:53:54.651Z,6.82
2022-11-27T08:56:26.012Z,6.87
2022-11-27T08:58:54.922Z,5.93
2022-11-27T09:01:26.159Z,6.20
2022-11-27T09:03:55.591Z,6.78
2022-11-27T09:06:27.506Z,6.65
2022-11-27T09:11:31.416Z,6.50
2022-11-27T09:14:00.954Z,6.65
2022-11-27T09:16:29.952Z,6.88
2022-11-27T09:18:59.727Z,7.15
2022-11-27T09:21:31.239Z,7.30
2022-11-27T09:24:03.255Z,7.03
2022-11-27T09:26:32.631Z,6.80
2022-11-27T09:29:01.317Z,6.95
2022-11-27T09:31:30.051Z,6.30
2022-11-27T09:34:00.863Z,7.38
2022-11-27T09:36:29.492Z,7.65
2022-11-27T09:39:02.919Z,7.22
2022-11-27T09:41:48.328Z,6.20
2022-11-27T09:44:33.333Z,7.60
2022-11-27T09:47:11.563Z,6.53
2022-11-27T09:49:47.450Z,7.40
2022-11-27T09:52:25.043Z,7.40
2022-11-27T09:55:03.323Z,7.38
2022-11-27T09:57:39.104Z,7.03
2022-11-27T10:00:15.945Z,6.93
2022-11-27T10:02:45.594Z,6.82
2022-11-27T10:05:21.056Z,7.05
2022-11-27T10:08:18.955Z,7.28
2022-11-27T10:11:14.271Z,7.35
2022-11-27T10:14:22.155Z,7.05
2022-11-27T10:16:58.351Z,7.13
2022-11-27T10:19:37.311Z,7.30
2022-11-27T10:22:21.000Z,7.05
2022-11-27T10:25:04.409Z,6.80
2022-11-27T10:27:44.993Z,7.63
2022-11-27T10:30:18.979Z,7.25
2022-11-27T10:32:57.504Z,7.05
2022-11-27T10:35:29.222Z,8.07
2022-11-27T10:38:06.770Z,7.57
2022-11-27T10:40:42.342Z,7.63
2022-11-27T10:43:20.266Z,7.28
2022-11-27T10:45:54.370Z,8.10
2022-11-27T10:48:23.654Z,7.50
2022-11-27T10:50:52.954Z,7.93
2022-11-27T10:53:28.627Z,7.47
2022-11-27T10:56:22.831Z,7.15
2022-11-27T10:59:00.672Z,8.18
2022-11-27T11:01:43.717Z,7.43
2022-11-27T11:04:36.419Z,7.50
2022-11-27T11:07:04.088Z,7.63
2022-11-27T11:09:35.493Z,7.63
2022-11-27T11:12:16.819Z,7.53
2022-11-27T11:14:55.847Z,7.85
2022-11-27T11:17:28.164Z,8.38
2022-11-27T11:19:57.058Z,8.05
2022-11-27T11:22:26.151Z,7.20
2022-11-27T11:24:55.752Z,7.32
2022-11-27T11:27:30.630Z,7.18
2022-11-27T11:30:04.008Z,8.38
2022-11-27T11:32:36.559Z,7.05
2022-11-27T11:35:11.221Z,6.68
2022-11-27T11:37:46.187Z,6.63
2022-11-27T11:40:25.207Z,7.25
2022-11-27T11:42:57.468Z,7.40
2022-11-27T11:45:32.648Z,7.85
2022-11-27T11:48:05.948Z,7.28
2022-11-27T11:50:40.983Z,7.32
2022-11-27T11:53:19.800Z,7.88
2022-11-27T11:56:00.753Z,7.45
2022-11-27T11:58:49.784Z,7.55
2022-11-27T12:01:43.656Z,7.10
2022-11-27T12:04:43.285Z,7.20
2022-11-27T12:07:27.241Z,7.60
2022-11-27T12:10:05.928Z,7.93
2022-11-27T12:12:51.145Z,7.78
2022-11-27T12:15:27.869Z,7.13
2022-11-27T12:18:02.921Z,7.00
2022-11-27T12:20:48.996Z,7.43
2022-11-27T12:23:48.820Z,7.93
2022-11-27T12:26:30.580Z,7.13
2022-11-27T12:29:27.701Z,6.32
2022-11-27T12:32:25.355Z,6.60
2022-11-27T12:35:19.127Z,6.13
2022-11-27T12:38:02.339Z,6.32
2022-11-27T12:40:49.299Z,5.70
2022-11-27T12:43:26.110Z,5.78
2022-11-27T12:46:02.780Z,5.57
2022-11-27T12:48:38.171Z,5.88
2022-11-27T12:51:13.803Z,5.60
2022-11-27T12:53:47.671Z,5.60
2022-11-27T12:56:24.017Z,5.78
2022-11-27T12:58:58.987Z,5.88
2022-11-27T13:01:34.897Z,5.63
2022-11-27T13:04:19.724Z,6.10
2022-11-27T13:07:05.502Z,5.53
2022-11-27T13:09:47.136Z,6.50
2022-11-27T13:12:26.088Z,6.28
2022-11-27T13:15:02.789Z,6.45
2022-11-27T13:17:39.811Z,6.72
2022-11-27T13:20:19.410Z,6.68
2022-11-27T13:22:51.375Z,7.90
2022-11-27T13:27:53.001Z,7.13
2022-11-27T13:30:25.552Z,6.90
2022-11-27T13:32:58.782Z,6.63
2022-11-27T13:35:31.499Z,6.75
2022-11-27T13:38:14.417Z,7.00
2022-11-27T13:40:46.051Z,6.72
2022-11-27T13:43:30.639Z,7.18
2022-11-27T13:46:06.063Z,6.90
2022-11-27T13:48:38.261Z,7.43
2022-11-27T13:51:09.624Z,6.97
2022-11-27T13:53:43.634Z,6.47
2022-11-27T13:56:12.282Z,7.00
2022-11-27T13:58:43.181Z,6.22
2022-11-27T14:04:56.147Z,5.82
2022-11-27T14:07:36.870Z,5.88
2022-11-27T14:10:13.519Z,6.20
2022-11-27T14:12:43.470Z,5.55
2022-11-27T14:15:25.450Z,6.20
2022-11-27T14:18:07.976Z,5.93
2022-11-27T14:20:48.309Z,6.18
2022-11-27T14:23:30.025Z,6.32
2022-11-27T14:26:14.680Z,6.57
2022-11-27T14:28:46.569Z,6.68
2022-11-27T14:31:29.076Z,7.30
2022-11-27T14:34:16.182Z,7.28
2022-11-27T14:36:47.451Z,7.40
2022-11-27T14:39:24.519Z,7.47
2022-11-27T14:42:01.943Z,7.70
2022-11-27T14:44:31.580Z,8.15
2022-11-27T14:47:04.146Z,7.85
2022-11-27T14:49:35.226Z,7.80
2022-11-27T14:52:14.009Z,7.87
2022-11-27T14:54:44.095Z,8.20
2022-11-27T14:57:25.509Z,8.02
2022-11-27T15:00:15.329Z,8.40
2022-11-27T15:02:44.281Z,8.40
2022-11-27T15:05:22.034Z,8.05
2022-11-27T15:07:55.438Z,8.13
2022-11-27T15:10:39.029Z,8.63
2022-11-27T15:13:21.137Z,8.15
2022-11-27T15:16:02.432Z,8.90
2022-11-27T15:18:33.806Z,9.38
2022-11-27T15:21:03.898Z,8.65
2022-11-27T15:23:35.848Z,9.23
2022-11-27T15:28:56.579Z,8.63
2022-11-27T15:31:32.222Z,8.38
2022-11-27T15:34:06.927Z,7.93
2022-11-27T15:36:44.088Z,8.68
2022-11-27T15:39:22.924Z,8.68
2022-11-27T15:41:54.369Z,9.30
2022-11-27T15:44:23.357Z,8.88
2022-11-27T15:46:52.889Z,8.27
2022-11-27T15:49:22.796Z,9.15
2022-11-27T15:51:52.759Z,9.18
2022-11-27T15:54:23.342Z,8.88
2022-11-27T15:56:52.230Z,8.75
2022-11-27T16:02:01.267Z,8.90
2022-11-27T16:04:30.219Z,8.53
2022-11-27T16:06:58.980Z,8.48
2022-11-27T16:09:27.626Z,9.43
2022-11-27T16:11:56.418Z,8.73
2022-11-27T16:14:25.585Z,9.40
2022-11-27T16:16:54.268Z,9.20
2022-11-27T16:19:24.919Z,8.90
2022-11-27T16:21:53.569Z,9.02
2022-11-27T16:24:22.287Z,8.85
2022-11-27T16:26:53.598Z,8.80
2022-11-27T16:29:22.262Z,9.70
2022-11-27T16:31:50.920Z,8.82
2022-11-27T16:34:19.688Z,9.30
2022-11-27T16:36:50.275Z,9.20
2022-11-27T16:39:19.457Z,9.32
2022-11-27T16:41:48.171Z,9.15
2022-11-27T16:44:17.118Z,8.90
2022-11-27T16:46:45.790Z,9.65
2022-11-27T16:49:14.901Z,9.68
2022-11-27T16:51:44.042Z,9.50
2022-11-27T16:54:15.667Z,9.90
2022-11-27T16:56:44.675Z,10.48
2022-11-27T16:59:16.271Z,9.77
2022-11-27T17:01:45.073Z,9.88
2022-11-27T17:04:19.422Z,9.65
2022-11-27T17:06:49.917Z,10.00
2022-11-27T17:09:21.912Z,10.40
2022-11-27T17:14:19.892Z,9.65
2022-11-27T17:16:49.098Z,10.00
2022-11-27T17:19:18.190Z,12.55
2022-11-27T17:21:47.300Z,9.30
2022-11-27T17:24:18.188Z,9.32
2022-11-27T17:26:50.034Z,9.13
2022-11-27T17:29:21.056Z,9.80
2022-11-27T17:31:50.120Z,9.07
2022-11-27T17:34:20.055Z,10.27
2022-11-27T17:36:53.127Z,9.38
2022-11-27T17:39:21.900Z,9.77
2022-11-27T17:41:52.526Z,9.80
2022-11-27T17:44:21.226Z,9.75
2022-11-27T17:46:50.172Z,10.32
2022-11-27T17:49:21.239Z,10.45
2022-11-27T17:51:49.790Z,10.43
2022-11-27T17:54:18.445Z,10.82
2022-11-27T17:56:50.599Z,10.07
2022-11-27T17:59:22.026Z,10.80
2022-11-27T18:01:52.534Z,10.10
2022-11-27T18:04:22.435Z,9.88
2022-11-27T18:06:51.105Z,10.25
2022-11-27T18:09:19.906Z,10.35
2022-11-27T18:11:48.466Z,10.23
2022-11-27T18:14:17.146Z,11.35
2022-11-27T18:16:47.883Z,11.70
2022-11-27T18:19:16.771Z,11.68
2022-11-27T18:21:45.400Z,12.32
2022-11-27T18:24:22.916Z,13.50
2022-11-27T18:27:07.662Z,11.55
2022-11-27T18:29:38.738Z,12.40
2022-11-27T18:32:10.098Z,12.60
2022-11-27T18:34:38.905Z,12.93
2022-11-27T18:37:08.249Z,12.77
2022-11-27T18:39:37.816Z,12.60
2022-11-27T18:42:07.685Z,13.40
2022-11-27T18:44:44.251Z,13.05
2022-11-27T18:47:16.628Z,14.38
2022-11-27T18:49:45.411Z,14.93
2022-11-27T18:52:15.693Z,13.55
2022-11-27T18:54:44.802Z,13.82
2022-11-27T18:57:13.585Z,13.00
2022-11-27T18:59:45.075Z,15.90
2022-11-27T19:02:16.944Z,15.63
2022-11-27T19:04:46.089Z,15.98
2022-11-27T19:07:14.805Z,14.80
2022-11-27T19:09:44.046Z,15.05
2022-11-27T19:12:13.288Z,14.90
2022-11-27T19:14:42.101Z,15.48
2022-11-27T19:17:10.883Z,14.70
2022-11-27T19:19:56.693Z,14.60
2022-11-27T19:22:25.412Z,13.82
2022-11-27T19:24:54.107Z,14.02
2022-11-27T19:27:22.769Z,14.40
2022-11-27T19:29:51.392Z,13.60
2022-11-27T19:32:20.010Z,13.43
2022-11-27T19:34:53.672Z,14.27
2022-11-27T19:37:34.215Z,12.40
2022-11-27T19:40:04.485Z,13.10
2022-11-27T19:42:33.799Z,12.82
2022-11-27T19:45:02.372Z,13.15
2022-11-27T19:47:30.948Z,12.70
2022-11-27T19:50:01.477Z,13.48
2022-11-27T19:52:30.076Z,13.10
2022-11-27T19:54:58.671Z,12.40
2022-11-27T19:57:27.745Z,12.52
2022-11-27T19:59:56.395Z,12.43
2022-11-27T20:02:25.108Z,12.60
2022-11-27T20:04:53.951Z,13.40
2022-11-27T20:07:24.706Z,12.50
2022-11-27T20:09:53.532Z,12.75
2022-11-27T20:12:22.127Z,13.23
2022-11-27T20:14:50.763Z,13.30
2022-11-27T20:17:19.385Z,13.23
2022-11-27T20:19:48.008Z,13.50
2022-11-27T20:22:16.655Z,13.48
2022-11-27T20:25:04.478Z,13.35
2022-11-27T20:27:37.861Z,13.05
2022-11-27T20:30:09.547Z,13.40
2022-11-27T20:32:38.300Z,13.15
2022-11-27T20:35:07.861Z,13.63
2022-11-27T20:37:37.398Z,13.02
2022-11-27T20:40:10.101Z,12.18
2022-11-27T20:42:38.715Z,14.63
2022-11-27T20:45:09.255Z,13.38
2022-11-27T20:47:37.893Z,13.40
2022-11-27T20:50:08.864Z,13.00
2022-11-27T20:52:37.467Z,14.03
2022-11-27T20:55:09.578Z,14.13
2022-11-27T20:57:38.267Z,15.00
2022-11-27T21:00:09.407Z,13.38
2022-11-27T21:02:43.112Z,13.30
2022-11-27T21:05:12.836Z,13.43
2022-11-27T21:07:43.717Z,14.50
2022-11-27T21:10:17.805Z,14.40
2022-11-27T21:12:46.413Z,14.55
2022-11-27T21:15:14.968Z,14.43
2022-11-27T21:17:43.568Z,14.15
2022-11-27T21:20:14.148Z,14.90
2022-11-27T21:22:43.495Z,13.85
2022-11-27T21:25:14.252Z,13.98
2022-11-27T21:27:42.808Z,13.57
2022-11-27T21:30:12.225Z,14.15
2022-11-27T21:32:40.852Z,14.38
2022-11-27T21:35:10.398Z,13.93
2022-11-27T21:37:39.072Z,14.32
2022-11-27T21:40:09.831Z,13.85
2022-11-27T21:42:44.351Z,15.15
2022-11-27T21:45:13.497Z,14.00
2022-11-27T21:47:42.120Z,14.73
2022-11-27T21:50:13.085Z,14.98
2022-11-27T21:52:41.863Z,11.17
2022-11-27T21:55:12.146Z,15.55
2022-11-27T21:57:42.922Z,15.18
2022-11-27T22:00:12.633Z,15.23
2022-11-27T22:02:41.532Z,13.63
2022-11-27T22:05:10.904Z,14.07
2022-11-27T22:07:39.757Z,14.32
2022-11-27T22:10:11.539Z,15.18
2022-11-27T22:12:42.105Z,13.55
2022-11-27T22:15:12.293Z,15.07
2022-11-27T22:17:40.902Z,14.57
2022-11-27T22:20:10.860Z,14.48
2022-11-27T22:22:39.430Z,15.52
2022-11-27T22:25:08.991Z,15.90
2022-11-27T22:27:37.583Z,14.75
2022-11-27T22:30:10.413Z,15.30
2022-11-27T22:32:39.011Z,14.68
2022-11-27T22:35:08.698Z,14.15
2022-11-27T22:37:37.247Z,13.73
2022-11-27T22:40:08.435Z,14.00
2022-11-27T22:42:37.535Z,13.93
2022-11-27T22:45:11.315Z,13.93
2022-11-27T22:47:39.923Z,13.45
2022-11-27T22:50:09.698Z,13.07
2022-11-27T22:52:38.274Z,13.70
2022-11-27T22:55:07.657Z,12.88
2022-11-27T22:57:36.280Z,12.80
2022-11-27T23:00:09.112Z,12.90
2022-11-27T23:02:39.491Z,12.93
2022-11-27T23:05:08.768Z,13.60
2022-11-27T23:07:37.420Z,12.63
2022-11-27T23:10:08.796Z,13.07
2022-11-27T23:12:37.490Z,12.60
2022-11-27T23:15:09.141Z,13.32
2022-11-27T23:17:37.763Z,12.63
2022-11-27T23:20:08.802Z,12.77
2022-11-27T23:22:37.549Z,13.40
2022-11-27T23:25:07.105Z,12.77
2022-11-27T23:27:35.730Z,12.80
2022-11-27T23:30:04.545Z,13.20
2022-11-27T23:32:38.804Z,14.15
2022-11-27T23:35:08.291Z,12.52
2022-11-27T23:37:36.891Z,12.65
2022-11-27T23:40:07.585Z,12.60
2022-11-27T23:42:36.470Z,13.48
2022-11-27T23:45:06.085Z,13.25
2022-11-27T23:47:34.699Z,13.75
2022-11-27T23:50:05.831Z,13.57
2022-11-27T23:52:34.731Z,14.07
2022-11-27T23:55:03.371Z,14.13
2022-11-27T23:57:31.967Z,14.45
